Medicare First Aid — 2ECD6 — position and weather

sailwx.info

Track history (hours):
 
Tides and Currents Weather Stations Pressure Air Temp Water Temp Dewpoint Dewpoint Depression Visibility Wind Speed Wind Dir Waves Ship Positions

Medicare First Aid

Last reported at 2018-Apr-25 17:32 UTC. Time now 2018-Jun-20 09:20 UTC.
Position N 47°33' W 002°54'.
Warning: this ship's position is 55 days out of date.

Length 12 m.

Type: Sailing vessel. MMSI: 235083873.

Date/timePositionNaut miles runAvg speedWind from/ knotsBaromVisibWave heightAir tempDewpointWater temp
2018-Apr-25 17:32N 47°33' W 002°54'0 0.9
2018-Apr-25 17:26N 47°33' W 002°54'1 2.3
2018-Apr-25 17:00N 47°32' W 002°55'1 2.4
2018-Apr-25 16:30N 47°30' W 002°55'2 3.7
2018-Apr-25 16:00N 47°29' W 002°54'2 3.1
2018-Apr-25 15:21N 47°27' W 002°54'0 1.1
2018-Apr-25 14:56N 47°26' W 002°54'0 0.9
2018-Apr-25 14:29N 47°27' W 002°55'1 1.9
2018-Apr-25 14:00N 47°27' W 002°56'1 1.0
2018-Apr-25 13:27N 47°27' W 002°56'2 4.2
2018-Apr-25 13:00N 47°28' W 002°59'4 7.9
2018-Apr-25 12:28N 47°25' W 003°04'3 7.0
2018-Apr-25 12:00N 47°23' W 003°07'2 0.1
2018-Apr-24 19:23N 47°22' W 003°10'3 7.2
2018-Apr-24 18:59N 47°24' W 003°13'4 7.4
2018-Apr-24 18:29N 47°26' W 003°18'3 7.1
2018-Apr-24 18:00N 47°28' W 003°22'3 6.9
2018-Apr-24 17:30N 47°30' W 003°26'4 7.5
2018-Apr-24 17:00N 47°32' W 003°31'6 0.2
2018-Apr-23 11:39N 47°36' W 003°37'1 3.0
2018-Apr-23 11:25N 47°35' W 003°36'2 5.7
2018-Apr-23 11:00N 47°37' W 003°34'3 6.1
2018-Apr-23 10:30N 47°39' W 003°31'3 5.1
2018-Apr-23 10:00N 47°41' W 003°28'2 4.0
2018-Apr-23 09:31N 47°39' W 003°27'0 0.0
2018-Apr-22 17:20N 47°39' W 003°27'0 1.3
2018-Apr-22 17:00N 47°39' W 003°27'1 2.4
2018-Apr-22 16:30N 47°39' W 003°28'0 0.9
2018-Apr-22 16:00N 47°40' W 003°28'1 2.6
2018-Apr-22 15:29N 47°40' W 003°30'1 2.5
2018-Apr-22 15:00N 47°41' W 003°31'2 4.5
2018-Apr-22 14:29N 47°40' W 003°27'2 4.6
2018-Apr-22 14:00N 47°38' W 003°25'0 0.0
2018-Apr-22 12:05N 47°38' W 003°25'0 0.1
2018-Apr-22 11:59N 47°38' W 003°25'1 2.7
2018-Apr-22 11:30N 47°37' W 003°25'2 4.8
2018-Apr-22 11:00N 47°36' W 003°22'3 5.9
2018-Apr-22 10:30N 47°33' W 003°19'2 4.7
2018-Apr-22 10:00N 47°31' W 003°18'3 5.1
2018-Apr-22 09:30N 47°29' W 003°18'3 5.6
2018-Apr-22 09:00N 47°26' W 003°16'3 5.6
2018-Apr-22 08:31N 47°24' W 003°14'1 0.8
2018-Apr-22 06:42N 47°22' W 003°13'0 0.0
2018-Apr-22 06:27N 47°22' W 003°13'0 0.0
2018-Apr-21 19:17N 47°22' W 003°13'0 0.0
2018-Apr-21 18:56N 47°22' W 003°13'0 0.0
2018-Apr-21 18:29N 47°22' W 003°13'0 0.0
2018-Apr-21 15:28N 47°22' W 003°13'0 0.0
2018-Apr-21 15:00N 47°22' W 003°13'2 4.0
2018-Apr-21 14:30N 47°23' W 003°10'1 2.2
2018-Apr-21 13:57N 47°22' W 003°09'0 1.1
2018-Apr-21 13:30N 47°22' W 003°08'2 3.3
2018-Apr-21 13:00N 47°23' W 003°09'2 3.1
2018-Apr-21 12:30N 47°23' W 003°11'1 1.1
2018-Apr-21 12:00N 47°24' W 003°11'1 1.7
2018-Apr-21 11:30N 47°23' W 003°12'4 7.2
2018-Apr-21 10:58N 47°25' W 003°07'3 7.5
2018-Apr-21 10:30N 47°27' W 003°03'3 6.4
2018-Apr-21 10:00N 47°29' W 002°59'3 6.1
2018-Apr-21 09:30N 47°31' W 002°56'2 3.8
2018-Apr-21 08:53N 47°33' W 002°54'0 0.3
2018-Apr-21 08:29N 47°33' W 002°54'0 0.0
2018-Apr-20 16:11N 47°33' W 002°54'  
2018-Apr-17 11:47N 47°33' W 002°54'0 0.0
2018-Apr-17 09:21N 47°33' W 002°54'  
Track history (hours):
 
Tides and Currents Weather Stations Pressure Air Temp Water Temp Dewpoint Dewpoint Depression Visibility Wind Speed Wind Dir Waves Ship Positions

Medicare First Aid

Last reported at 2018-Apr-25 17:32 UTC. Time now 2018-Jun-20 09:20 UTC.
Position N 47°33' W 002°54'.
Warning: this ship's position is 55 days out of date.

Length 12 m.

Type: Sailing vessel. MMSI: 235083873.

Date/timePositionNaut miles runAvg speedWind from/ knotsBaromVisibWave heightAir tempDewpointWater temp
2018-Apr-25 17:32N 47°33' W 002°54'0 0.9
2018-Apr-25 17:26N 47°33' W 002°54'1 2.3
2018-Apr-25 17:00N 47°32' W 002°55'1 2.4
2018-Apr-25 16:30N 47°30' W 002°55'2 3.7
2018-Apr-25 16:00N 47°29' W 002°54'2 3.1
2018-Apr-25 15:21N 47°27' W 002°54'0 1.1
2018-Apr-25 14:56N 47°26' W 002°54'0 0.9
2018-Apr-25 14:29N 47°27' W 002°55'1 1.9
2018-Apr-25 14:00N 47°27' W 002°56'1 1.0
2018-Apr-25 13:27N 47°27' W 002°56'2 4.2
2018-Apr-25 13:00N 47°28' W 002°59'4 7.9
2018-Apr-25 12:28N 47°25' W 003°04'3 7.0
2018-Apr-25 12:00N 47°23' W 003°07'2 0.1
2018-Apr-24 19:23N 47°22' W 003°10'3 7.2
2018-Apr-24 18:59N 47°24' W 003°13'4 7.4
2018-Apr-24 18:29N 47°26' W 003°18'3 7.1
2018-Apr-24 18:00N 47°28' W 003°22'3 6.9
2018-Apr-24 17:30N 47°30' W 003°26'4 7.5
2018-Apr-24 17:00N 47°32' W 003°31'6 0.2
2018-Apr-23 11:39N 47°36' W 003°37'1 3.0
2018-Apr-23 11:25N 47°35' W 003°36'2 5.7
2018-Apr-23 11:00N 47°37' W 003°34'3 6.1
2018-Apr-23 10:30N 47°39' W 003°31'3 5.1
2018-Apr-23 10:00N 47°41' W 003°28'2 4.0
2018-Apr-23 09:31N 47°39' W 003°27'0 0.0
2018-Apr-22 17:20N 47°39' W 003°27'0 1.3
2018-Apr-22 17:00N 47°39' W 003°27'1 2.4
2018-Apr-22 16:30N 47°39' W 003°28'0 0.9
2018-Apr-22 16:00N 47°40' W 003°28'1 2.6
2018-Apr-22 15:29N 47°40' W 003°30'1 2.5
2018-Apr-22 15:00N 47°41' W 003°31'2 4.5
2018-Apr-22 14:29N 47°40' W 003°27'2 4.6
2018-Apr-22 14:00N 47°38' W 003°25'0 0.0
2018-Apr-22 12:05N 47°38' W 003°25'0 0.1
2018-Apr-22 11:59N 47°38' W 003°25'1 2.7
2018-Apr-22 11:30N 47°37' W 003°25'2 4.8
2018-Apr-22 11:00N 47°36' W 003°22'3 5.9
2018-Apr-22 10:30N 47°33' W 003°19'2 4.7
2018-Apr-22 10:00N 47°31' W 003°18'3 5.1
2018-Apr-22 09:30N 47°29' W 003°18'3 5.6
2018-Apr-22 09:00N 47°26' W 003°16'3 5.6
2018-Apr-22 08:31N 47°24' W 003°14'1 0.8
2018-Apr-22 06:42N 47°22' W 003°13'0 0.0
2018-Apr-22 06:27N 47°22' W 003°13'0 0.0
2018-Apr-21 19:17N 47°22' W 003°13'0 0.0
2018-Apr-21 18:56N 47°22' W 003°13'0 0.0
2018-Apr-21 18:29N 47°22' W 003°13'0 0.0
2018-Apr-21 15:28N 47°22' W 003°13'0 0.0
2018-Apr-21 15:00N 47°22' W 003°13'2 4.0
2018-Apr-21 14:30N 47°23' W 003°10'1 2.2
2018-Apr-21 13:57N 47°22' W 003°09'0 1.1
2018-Apr-21 13:30N 47°22' W 003°08'2 3.3
2018-Apr-21 13:00N 47°23' W 003°09'2 3.1
2018-Apr-21 12:30N 47°23' W 003°11'1 1.1
2018-Apr-21 12:00N 47°24' W 003°11'1 1.7
2018-Apr-21 11:30N 47°23' W 003°12'4 7.2
2018-Apr-21 10:58N 47°25' W 003°07'3 7.5
2018-Apr-21 10:30N 47°27' W 003°03'3 6.4
2018-Apr-21 10:00N 47°29' W 002°59'3 6.1
2018-Apr-21 09:30N 47°31' W 002°56'2 3.8
2018-Apr-21 08:53N 47°33' W 002°54'0 0.3
2018-Apr-21 08:29N 47°33' W 002°54'0 0.0
2018-Apr-20 16:11N 47°33' W 002°54'  
2018-Apr-17 11:47N 47°33' W 002°54'0 0.0
2018-Apr-17 09:21N 47°33' W 002°54'  

Dump ship's entire track history